Time;durP1;ratioP1;P1;durP2;ratioP2;P2;SDS_P1;SDS_P2;PMS_P1;PMS_P2;Temp;Humidity;BMP_temperature;BMP_pressure;BME280_temperature;BME280_humidity;BME280_pressure;Samples;Min_cycle;Max_cycle;Signal;HPM_P1;HPM_P2
2022/05/26 00:01:50;;;;;;;1.10;0.60;;;18.40;99.90;;;;;;5044666;28;20205;-78
2022/05/26 00:04:15;;;;;;;1.33;0.60;;;18.40;99.90;;;;;;5031535;28;20178;-76
2022/05/26 00:06:44;;;;;;;0.98;0.52;;;18.40;99.90;;;;;;5027638;28;20169;-77
2022/05/26 00:09:14;;;;;;;1.67;0.70;;;18.30;99.90;;;;;;5042042;28;20178;-75
2022/05/26 00:11:40;;;;;;;0.77;0.63;;;18.30;99.90;;;;;;5030715;28;20276;-76
2022/05/26 00:14:08;;;;;;;2.40;0.70;;;18.30;99.90;;;;;;5035441;28;20301;-78
2022/05/26 00:16:38;;;;;;;1.17;0.50;;;18.30;99.90;;;;;;5037585;28;20181;-77
2022/05/26 00:19:04;;;;;;;0.85;0.50;;;18.30;99.90;;;;;;5036228;28;20194;-75
2022/05/26 00:21:30;;;;;;;0.88;0.50;;;18.30;99.90;;;;;;5046945;28;20228;-78
2022/05/26 00:23:57;;;;;;;0.70;0.50;;;18.30;99.90;;;;;;5037851;28;20169;-77
2022/05/26 00:26:28;;;;;;;1.92;0.50;;;18.30;99.90;;;;;;5036030;28;20176;-78
2022/05/26 00:28:56;;;;;;;1.02;0.60;;;18.20;99.90;;;;;;5037225;28;20251;-78
2022/05/26 00:31:24;;;;;;;1.55;0.57;;;18.20;99.90;;;;;;5029611;28;20235;-78
2022/05/26 00:33:50;;;;;;;1.80;0.60;;;18.20;99.90;;;;;;5044660;28;20177;-78
2022/05/26 00:36:17;;;;;;;1.67;0.57;;;18.10;99.90;;;;;;5031564;28;20292;-76
2022/05/26 00:38:45;;;;;;;1.55;0.70;;;18.10;99.90;;;;;;5046719;28;20189;-77
2022/05/26 00:41:14;;;;;;;1.23;0.47;;;18.10;99.90;;;;;;5051583;28;20285;-77
2022/05/26 00:43:44;;;;;;;1.30;0.60;;;18.10;99.90;;;;;;5033419;28;20317;-78
2022/05/26 00:46:32;;;;;;;1.40;0.50;;;18.00;99.90;;;;;;5031930;28;20178;-77
2022/05/26 00:49:02;;;;;;;1.02;0.70;;;18.00;99.90;;;;;;5034494;28;20264;-78
2022/05/26 00:51:32;;;;;;;0.93;0.43;;;18.00;99.90;;;;;;5040142;28;20238;-75
2022/05/26 00:54:13;;;;;;;0.73;0.50;;;18.00;99.90;;;;;;5023563;28;20177;-77
2022/05/26 00:56:51;;;;;;;0.90;0.47;;;17.90;99.90;;;;;;5024787;28;20201;-75
2022/05/26 00:59:37;;;;;;;0.57;0.50;;;17.90;99.90;;;;;;5042294;28;20174;-76
2022/05/26 01:02:04;;;;;;;1.38;0.60;;;17.80;99.90;;;;;;5034376;28;20389;-77
2022/05/26 01:04:41;;;;;;;1.45;0.60;;;17.80;99.90;;;;;;5038682;28;20182;-76
2022/05/26 01:07:19;;;;;;;3.03;0.70;;;17.80;99.90;;;;;;5032386;28;20439;-76
2022/05/26 01:09:47;;;;;;;2.03;0.63;;;17.70;99.90;;;;;;5034735;28;20177;-76
2022/05/26 01:12:14;;;;;;;1.15;0.60;;;17.60;99.90;;;;;;5023490;28;20240;-77
2022/05/26 01:14:51;;;;;;;1.90;0.50;;;17.60;99.90;;;;;;5029163;28;20264;-75
2022/05/26 01:17:31;;;;;;;0.98;0.50;;;17.60;99.90;;;;;;5044396;28;20197;-76
2022/05/26 01:20:25;;;;;;;1.10;0.60;;;17.50;99.90;;;;;;5027761;28;20161;-78
2022/05/26 01:23:18;;;;;;;1.17;0.68;;;17.50;99.90;;;;;;5030165;28;20197;-76
2022/05/26 01:26:02;;;;;;;0.82;0.70;;;17.50;99.90;;;;;;5027519;28;20181;-77
2022/05/26 01:28:48;;;;;;;1.30;0.60;;;17.50;99.90;;;;;;5035232;28;20178;-76
2022/05/26 01:31:35;;;;;;;1.77;0.60;;;17.50;99.90;;;;;;5034184;28;20252;-76
2022/05/26 01:34:10;;;;;;;0.82;0.50;;;17.40;99.90;;;;;;5028714;28;20212;-79
2022/05/26 01:36:51;;;;;;;1.48;0.60;;;17.40;99.90;;;;;;5030553;28;20184;-78
2022/05/26 01:39:46;;;;;;;1.92;0.50;;;17.40;99.90;;;;;;5039721;28;20201;-79
2022/05/26 01:42:41;;;;;;;0.88;0.40;;;17.40;99.90;;;;;;5027827;28;20206;-75
2022/05/26 01:45:07;;;;;;;1.23;0.60;;;17.40;99.90;;;;;;5028933;28;20255;-79
2022/05/26 01:47:57;;;;;;;1.88;0.50;;;17.30;99.90;;;;;;5030543;28;20233;-77
2022/05/26 01:50:32;;;;;;;0.65;0.43;;;17.30;99.90;;;;;;5061027;28;20237;-76
2022/05/26 01:53:18;;;;;;;0.30;0.30;;;17.30;99.90;;;;;;5039261;28;20204;-76
2022/05/26 01:55:48;;;;;;;0.57;0.40;;;17.30;99.90;;;;;;5032924;28;20207;-78
2022/05/26 01:58:18;;;;;;;1.00;0.68;;;17.30;99.90;;;;;;5040542;28;20194;-77
2022/05/26 02:00:47;;;;;;;1.10;0.40;;;17.20;99.90;;;;;;5036596;28;20228;-77
2022/05/26 02:03:16;;;;;;;0.50;0.50;;;17.20;99.90;;;;;;5046426;28;20178;-77
2022/05/26 02:05:49;;;;;;;0.55;0.50;;;17.20;99.90;;;;;;5036583;28;20178;-76
2022/05/26 02:08:36;;;;;;;0.55;0.43;;;17.20;99.90;;;;;;5039731;28;20188;-75
2022/05/26 02:11:17;;;;;;;1.20;0.60;;;17.20;99.90;;;;;;5034817;28;20230;-78
2022/05/26 02:13:57;;;;;;;1.42;0.40;;;17.20;99.90;;;;;;5043190;28;20299;-77
2022/05/26 02:16:37;;;;;;;1.70;0.60;;;17.20;99.90;;;;;;5039903;28;20698;-78
2022/05/26 02:19:30;;;;;;;1.23;0.50;;;17.20;99.90;;;;;;5041955;28;20190;-78
2022/05/26 02:22:10;;;;;;;1.75;0.52;;;17.10;99.90;;;;;;5040101;28;20229;-78
2022/05/26 02:25:03;;;;;;;0.95;0.60;;;17.10;99.90;;;;;;5040296;28;20237;-78
2022/05/26 02:27:33;;;;;;;0.57;0.40;;;17.10;99.90;;;;;;5020419;28;20194;-79
2022/05/26 02:30:01;;;;;;;1.48;0.70;;;17.10;99.90;;;;;;5020569;28;20170;-78
2022/05/26 02:32:35;;;;;;;0.85;0.65;;;17.10;99.90;;;;;;5030175;28;20433;-78
2022/05/26 02:35:11;;;;;;;1.05;0.50;;;17.10;99.90;;;;;;5040567;28;20266;-78
2022/05/26 02:37:41;;;;;;;1.27;0.60;;;17.00;99.90;;;;;;5048293;28;20177;-80
2022/05/26 02:40:10;;;;;;;0.88;0.73;;;17.00;99.90;;;;;;5023616;28;20189;-78
2022/05/26 02:42:42;;;;;;;2.03;0.50;;;17.00;99.90;;;;;;5035923;28;20206;-78
2022/05/26 02:45:11;;;;;;;2.10;0.73;;;17.00;99.90;;;;;;5044364;28;20189;-79
2022/05/26 02:47:48;;;;;;;0.50;0.50;;;17.00;99.90;;;;;;5039923;28;20178;-73
2022/05/26 02:50:35;;;;;;;1.40;0.60;;;16.90;99.90;;;;;;5036770;28;20370;-78
2022/05/26 02:53:07;;;;;;;1.40;0.60;;;16.90;99.90;;;;;;5038322;28;20188;-78
2022/05/26 02:55:40;;;;;;;0.80;0.50;;;16.90;99.90;;;;;;5047678;28;20229;-76
2022/05/26 02:58:30;;;;;;;0.75;0.50;;;16.80;99.90;;;;;;5024871;28;20174;-79
2022/05/26 03:01:02;;;;;;;1.67;0.50;;;16.80;99.90;;;;;;5039381;28;20225;-76
2022/05/26 03:03:39;;;;;;;0.70;0.50;;;16.80;99.90;;;;;;5021728;28;20169;-78
2022/05/26 03:06:15;;;;;;;1.30;0.40;;;16.70;99.90;;;;;;5025960;28;20177;-79
2022/05/26 03:08:45;;;;;;;0.65;0.50;;;16.70;99.90;;;;;;5031567;28;20168;-78
2022/05/26 03:11:20;;;;;;;0.70;0.40;;;16.70;99.90;;;;;;5032778;28;20240;-79
2022/05/26 03:13:46;;;;;;;1.17;0.40;;;16.70;99.90;;;;;;5028969;28;20248;-78
2022/05/26 03:16:14;;;;;;;1.88;0.55;;;16.70;99.90;;;;;;5045467;28;20291;-77
2022/05/26 03:18:39;;;;;;;1.05;0.63;;;16.70;99.90;;;;;;5038840;28;20227;-78
2022/05/26 03:21:07;;;;;;;0.70;0.50;;;16.60;99.90;;;;;;5034881;28;20202;-78
2022/05/26 03:23:39;;;;;;;0.95;0.50;;;16.60;99.90;;;;;;5038227;28;20196;-78
2022/05/26 03:26:10;;;;;;;0.80;0.40;;;16.60;99.90;;;;;;5049462;28;20231;-79
2022/05/26 03:28:35;;;;;;;0.93;0.60;;;16.60;99.90;;;;;;5039131;28;20173;-79
2022/05/26 03:31:06;;;;;;;1.02;0.50;;;16.60;99.90;;;;;;5038897;28;20177;-78
2022/05/26 03:40:46;;;;;;;1.20;0.52;;;16.60;99.90;;;;;;5035629;28;20170;-80
2022/05/26 03:41:45;;;;;;;0.55;0.47;;;16.60;99.90;;;;;;5053394;28;20200;-78
2022/05/26 03:44:11;;;;;;;0.45;0.45;;;16.60;99.90;;;;;;5037961;28;20197;-79
2022/05/26 03:46:39;;;;;;;1.33;0.43;;;16.60;99.90;;;;;;5038960;28;20178;-80
2022/05/26 03:49:05;;;;;;;1.55;0.63;;;16.60;99.90;;;;;;5033238;28;20189;-77
2022/05/26 03:51:30;;;;;;;0.90;0.47;;;16.60;99.90;;;;;;5019083;28;20186;-78
2022/05/26 03:53:58;;;;;;;0.52;0.40;;;16.60;99.90;;;;;;5025171;28;20177;-78
2022/05/26 03:56:28;;;;;;;0.95;0.60;;;16.60;99.90;;;;;;5018786;28;20178;-80
2022/05/26 03:58:54;;;;;;;0.98;0.50;;;16.60;99.90;;;;;;5035836;28;20479;-78
2022/05/26 04:01:22;;;;;;;0.80;0.47;;;16.60;99.90;;;;;;5029720;28;20209;-79
2022/05/26 04:03:48;;;;;;;1.58;0.60;;;16.70;99.90;;;;;;5032324;28;20165;-79
2022/05/26 04:06:17;;;;;;;1.77;0.50;;;16.70;99.90;;;;;;5036573;28;20273;-77
2022/05/26 04:08:45;;;;;;;0.60;0.40;;;16.60;99.90;;;;;;5026291;28;20240;-75
2022/05/26 04:11:16;;;;;;;0.65;0.50;;;16.70;99.90;;;;;;5042870;28;20182;-76
2022/05/26 04:13:41;;;;;;;0.95;0.60;;;16.60;99.90;;;;;;5040586;28;20169;-78
2022/05/26 04:16:09;;;;;;;1.55;0.55;;;16.70;99.90;;;;;;5043081;28;20219;-78
2022/05/26 04:18:35;;;;;;;0.80;0.50;;;16.70;99.90;;;;;;5021100;28;20178;-77
2022/05/26 04:21:12;;;;;;;1.00;0.40;;;16.70;99.90;;;;;;5033996;28;20181;-79
2022/05/26 04:23:39;;;;;;;2.60;1.40;;;16.70;99.90;;;;;;5023810;28;20178;-79
2022/05/26 04:26:06;;;;;;;0.93;0.70;;;16.70;99.90;;;;;;5035785;28;20181;-78
2022/05/26 04:28:35;;;;;;;1.58;0.68;;;16.70;99.90;;;;;;5042332;28;20202;-79
2022/05/26 04:31:02;;;;;;;1.92;0.73;;;16.70;99.90;;;;;;5018142;28;20180;-79
2022/05/26 04:33:28;;;;;;;1.85;0.60;;;16.70;99.90;;;;;;5028010;28;20259;-81
2022/05/26 04:35:56;;;;;;;2.60;0.70;;;16.70;99.90;;;;;;5054071;28;20197;-78
2022/05/26 04:38:23;;;;;;;0.70;0.47;;;16.70;99.90;;;;;;5047531;28;20286;-80
2022/05/26 04:40:59;;;;;;;1.80;0.65;;;16.70;99.90;;;;;;5044886;28;20178;-79
2022/05/26 04:43:25;;;;;;;0.60;0.47;;;16.70;99.90;;;;;;5037064;28;20268;-77
2022/05/26 04:45:53;;;;;;;1.45;0.60;;;16.80;99.90;;;;;;5042450;28;20324;-80
2022/05/26 04:48:21;;;;;;;1.20;0.68;;;16.80;99.90;;;;;;5034542;28;20289;-79
2022/05/26 04:50:53;;;;;;;0.70;0.52;;;16.80;99.90;;;;;;5029470;28;20374;-79
2022/05/26 04:53:19;;;;;;;1.05;0.70;;;16.80;99.90;;;;;;5027616;28;20184;-78
2022/05/26 04:55:44;;;;;;;0.95;0.63;;;16.80;99.90;;;;;;5023611;28;20204;-78
2022/05/26 04:58:10;;;;;;;2.35;0.73;;;16.80;99.90;;;;;;5032068;28;20169;-80
2022/05/26 05:00:36;;;;;;;1.45;0.80;;;16.80;99.90;;;;;;5045060;28;20182;-80
2022/05/26 05:03:07;;;;;;;1.40;0.70;;;16.80;99.90;;;;;;5030360;28;20198;-77
2022/05/26 05:05:34;;;;;;;2.13;0.60;;;16.80;99.90;;;;;;5049551;28;20205;-80
2022/05/26 05:08:00;;;;;;;0.85;0.60;;;16.80;99.90;;;;;;5028708;28;20178;-80
2022/05/26 05:10:28;;;;;;;0.95;0.70;;;16.70;99.90;;;;;;5030705;28;20180;-80
2022/05/26 05:12:56;;;;;;;1.50;0.80;;;16.70;99.90;;;;;;5044966;28;20204;-79
2022/05/26 05:15:31;;;;;;;1.33;0.85;;;16.70;99.90;;;;;;5036228;28;20176;-81
2022/05/26 05:17:59;;;;;;;1.88;0.75;;;16.70;99.90;;;;;;5036679;28;20184;-80
2022/05/26 05:20:25;;;;;;;1.70;0.73;;;16.70;99.90;;;;;;5024365;28;20205;-79
2022/05/26 05:23:01;;;;;;;2.00;0.80;;;16.70;99.90;;;;;;5043411;28;20374;-81
2022/05/26 05:25:31;;;;;;;1.25;0.70;;;16.70;99.90;;;;;;5043108;28;20185;-79
2022/05/26 05:28:07;;;;;;;2.03;0.90;;;16.70;99.90;;;;;;5046852;28;21844;-79
2022/05/26 05:30:40;;;;;;;2.53;0.90;;;16.70;99.90;;;;;;5033609;28;20173;-79
2022/05/26 05:33:41;;;;;;;1.92;0.90;;;16.80;99.90;;;;;;5047371;28;20230;-76
2022/05/26 05:36:18;;;;;;;2.47;0.70;;;16.80;99.90;;;;;;4966522;28;20229;-79
2022/05/26 05:38:47;;;;;;;1.63;1.10;;;16.90;99.90;;;;;;5024036;28;20275;-78
2022/05/26 05:41:13;;;;;;;2.35;1.00;;;16.90;99.90;;;;;;5025994;28;20196;-78
2022/05/26 05:43:42;;;;;;;5.03;1.30;;;16.90;99.90;;;;;;5032081;28;20238;-79
2022/05/26 05:46:14;;;;;;;2.17;1.25;;;17.00;99.90;;;;;;5034021;28;20236;-80
2022/05/26 05:48:44;;;;;;;2.22;1.25;;;17.00;99.90;;;;;;5038086;28;20174;-79
2022/05/26 05:51:10;;;;;;;2.10;1.02;;;17.00;99.90;;;;;;5044838;28;20235;-80
2022/05/26 05:53:36;;;;;;;1.90;1.10;;;17.10;99.90;;;;;;5034605;28;20413;-81
2022/05/26 05:56:09;;;;;;;2.42;1.20;;;17.10;99.90;;;;;;5031619;28;20199;-79
2022/05/26 05:58:35;;;;;;;2.95;1.40;;;17.20;99.90;;;;;;5052710;28;20243;-81
2022/05/26 06:01:02;;;;;;;1.98;1.23;;;17.20;99.90;;;;;;5037938;28;20192;-78
2022/05/26 06:03:34;;;;;;;2.85;1.33;;;17.30;99.90;;;;;;5047458;28;20182;-82
2022/05/26 06:06:04;;;;;;;1.67;1.40;;;17.30;99.90;;;;;;5041057;28;20177;-73
2022/05/26 06:08:29;;;;;;;2.10;1.27;;;17.40;99.90;;;;;;5034131;28;20462;-77
2022/05/26 06:10:58;;;;;;;3.33;1.60;;;17.40;99.90;;;;;;5035672;28;20196;-77
2022/05/26 06:13:24;;;;;;;3.35;1.40;;;17.50;99.90;;;;;;5036204;28;20174;-76
2022/05/26 06:15:50;;;;;;;4.03;1.60;;;17.50;99.90;;;;;;5036889;28;20235;-80
2022/05/26 06:18:18;;;;;;;4.70;1.90;;;17.60;99.90;;;;;;5031297;28;20235;-79
2022/05/26 06:20:44;;;;;;;4.95;1.67;;;17.60;99.90;;;;;;5039671;28;20186;-78
2022/05/26 06:23:10;;;;;;;5.97;1.70;;;17.70;99.90;;;;;;5036573;28;20197;-77
2022/05/26 06:25:37;;;;;;;2.15;1.50;;;17.70;99.90;;;;;;5037815;28;20178;-80
2022/05/26 06:30:51;;;;;;;5.97;2.35;;;17.70;99.90;;;;;;5060659;28;20234;-77
2022/05/26 06:38:45;;;;;;;4.07;1.50;;;18.00;99.90;;;;;;5042831;28;20220;-80
2022/05/26 06:44:00;;;;;;;4.75;2.08;;;18.10;99.90;;;;;;5038386;28;20237;-77
2022/05/26 06:46:26;;;;;;;3.65;1.70;;;18.10;99.90;;;;;;5039713;28;20201;-75
2022/05/26 06:48:55;;;;;;;3.65;1.67;;;18.10;99.90;;;;;;5039605;28;20174;-76
2022/05/26 06:51:24;;;;;;;2.22;1.42;;;18.20;99.90;;;;;;5036413;28;20178;-79
2022/05/26 06:53:53;;;;;;;4.70;2.05;;;18.20;99.90;;;;;;5039743;28;20248;-78
2022/05/26 06:56:21;;;;;;;4.47;1.98;;;18.30;99.90;;;;;;5036322;28;20241;-77
2022/05/26 06:58:49;;;;;;;3.40;1.42;;;18.30;99.90;;;;;;5040036;28;20182;-80
2022/05/26 07:01:16;;;;;;;4.78;2.03;;;18.40;99.90;;;;;;5039336;28;20272;-77
2022/05/26 07:03:42;;;;;;;4.13;1.80;;;18.50;99.90;;;;;;5038169;28;20333;-78
2022/05/26 07:06:24;;;;;;;4.45;1.90;;;18.50;99.90;;;;;;5044768;28;20187;-80
2022/05/26 07:08:50;;;;;;;5.15;1.80;;;18.60;99.90;;;;;;5040359;28;20436;-76
2022/05/26 07:11:17;;;;;;;2.97;1.50;;;18.60;99.90;;;;;;5024005;28;20228;-76
2022/05/26 07:13:43;;;;;;;3.58;1.75;;;18.60;99.90;;;;;;5030158;28;20178;-78
2022/05/26 07:16:10;;;;;;;5.72;1.90;;;18.70;99.90;;;;;;5029105;28;20189;-77
2022/05/26 07:18:39;;;;;;;4.13;1.80;;;18.70;99.90;;;;;;5034364;28;20247;-78
2022/05/26 07:21:11;;;;;;;6.03;2.13;;;18.70;99.90;;;;;;5025925;28;20182;-79
2022/05/26 07:23:37;;;;;;;3.78;1.95;;;18.70;99.90;;;;;;5039401;28;20230;-86
2022/05/26 07:26:08;;;;;;;4.53;1.80;;;18.70;99.90;;;;;;5044131;28;20213;-84
2022/05/26 07:28:40;;;;;;;3.33;1.55;;;18.70;99.90;;;;;;5027144;28;20174;-84
2022/05/26 07:31:09;;;;;;;2.83;2.08;;;18.70;99.90;;;;;;5035819;28;20177;-82
2022/05/26 07:33:34;;;;;;;2.30;1.48;;;18.70;99.90;;;;;;5044476;28;20204;-85
2022/05/26 07:36:03;;;;;;;4.20;2.15;;;18.60;99.90;;;;;;5035084;28;20170;-87
2022/05/26 07:41:24;;;;;;;5.60;2.45;;;18.60;99.90;;;;;;5040723;28;20216;-86
2022/05/26 07:43:57;;;;;;;5.10;2.20;;;18.60;99.90;;;;;;5029387;28;20169;-83
2022/05/26 07:46:27;;;;;;;4.95;2.13;;;18.60;99.90;;;;;;5042171;28;20233;-89
2022/05/26 07:48:53;;;;;;;5.07;2.30;;;18.60;99.90;;;;;;5025009;28;20198;-85
2022/05/26 07:51:24;;;;;;;5.05;2.10;;;18.70;99.90;;;;;;5055604;28;20189;-81
2022/05/26 07:53:50;;;;;;;4.93;2.15;;;18.70;99.90;;;;;;5038991;28;20239;-83
2022/05/26 07:56:17;;;;;;;4.75;2.10;;;18.80;99.90;;;;;;5052836;28;20185;-79
2022/05/26 07:58:43;;;;;;;4.72;2.28;;;18.90;99.90;;;;;;5041291;28;20188;-83
2022/05/26 08:01:10;;;;;;;4.07;2.10;;;18.90;99.90;;;;;;5044323;28;20193;-75
2022/05/26 08:03:38;;;;;;;3.92;2.05;;;18.90;99.90;;;;;;5047051;28;20177;-79
2022/05/26 08:06:04;;;;;;;3.08;1.65;;;18.90;99.90;;;;;;5030501;28;20204;-87
2022/05/26 08:08:32;;;;;;;4.07;2.00;;;19.00;99.90;;;;;;5036091;28;20189;-82
2022/05/26 08:11:00;;;;;;;4.88;2.03;;;19.00;99.90;;;;;;5035925;28;20169;-82
2022/05/26 08:13:26;;;;;;;4.95;2.25;;;19.00;99.90;;;;;;5037933;28;20254;-77
2022/05/26 08:15:52;;;;;;;4.43;2.30;;;19.10;99.90;;;;;;5028070;28;20178;-83
2022/05/26 08:18:22;;;;;;;4.35;2.00;;;19.10;99.90;;;;;;5058583;28;20185;-81
2022/05/26 08:20:48;;;;;;;3.97;1.90;;;19.10;99.90;;;;;;5037325;28;20307;-80
2022/05/26 08:23:16;;;;;;;5.40;2.20;;;19.20;99.90;;;;;;5037364;28;20284;-86
2022/05/26 08:25:44;;;;;;;3.55;1.80;;;19.30;99.90;;;;;;5036598;28;20228;-81
2022/05/26 08:28:10;;;;;;;5.20;2.00;;;19.40;99.90;;;;;;5031608;28;20401;-84
2022/05/26 08:30:35;;;;;;;6.13;2.08;;;19.40;99.90;;;;;;5041525;28;20170;-80
2022/05/26 08:33:03;;;;;;;3.70;2.13;;;19.40;99.90;;;;;;5042599;28;20204;-80
2022/05/26 08:35:33;;;;;;;6.95;2.33;;;19.30;99.90;;;;;;5032543;28;20299;-79
2022/05/26 08:38:01;;;;;;;5.03;2.38;;;19.30;99.90;;;;;;5029889;28;20177;-77
2022/05/26 08:40:41;;;;;;;3.70;2.00;;;19.20;99.90;;;;;;5038415;28;20292;-81
2022/05/26 08:43:21;;;;;;;4.20;1.90;;;19.20;99.90;;;;;;5035691;28;20263;-84
2022/05/26 08:45:54;;;;;;;4.55;1.90;;;19.10;99.90;;;;;;5017451;28;20256;-73
2022/05/26 08:48:49;;;;;;;6.78;1.85;;;19.20;99.90;;;;;;5046461;28;20221;-74
2022/05/26 08:51:33;;;;;;;5.03;1.98;;;19.20;99.90;;;;;;5044953;28;20200;-74
2022/05/26 08:54:00;;;;;;;5.40;2.38;;;19.30;99.90;;;;;;5050956;28;20204;-74
2022/05/26 08:56:27;;;;;;;4.63;2.22;;;19.40;99.90;;;;;;5036962;28;20191;-74
2022/05/26 08:59:02;;;;;;;6.70;2.83;;;19.40;99.90;;;;;;5023678;28;20190;-75
2022/05/26 09:01:32;;;;;;;4.38;1.98;;;19.50;99.90;;;;;;5040430;28;20219;-75
2022/05/26 09:03:58;;;;;;;5.45;1.90;;;19.60;99.90;;;;;;5034502;28;20173;-80
2022/05/26 09:06:25;;;;;;;4.70;1.90;;;19.60;99.90;;;;;;5036779;28;20225;-81
2022/05/26 09:14:31;;;;;;;7.18;2.20;;;19.90;99.90;;;;;;5044692;28;20291;-82
2022/05/26 09:17:04;;;;;;;3.80;2.00;;;20.00;99.90;;;;;;5035043;28;20185;-80
2022/05/26 09:19:57;;;;;;;2.72;1.73;;;20.00;99.90;;;;;;5017668;28;20158;-84
2022/05/26 09:22:41;;;;;;;3.28;1.70;;;20.10;99.90;;;;;;5017308;28;20225;-78
2022/05/26 09:25:34;;;;;;;3.83;1.75;;;20.10;99.90;;;;;;5049367;28;20172;-78
2022/05/26 09:28:02;;;;;;;3.42;1.60;;;20.20;99.90;;;;;;5006867;28;20199;-79
2022/05/26 09:30:33;;;;;;;3.03;1.70;;;20.20;99.90;;;;;;5037518;28;20472;-82
2022/05/26 09:32:59;;;;;;;3.90;1.80;;;20.30;99.90;;;;;;5037462;28;20189;-83
2022/05/26 09:35:30;;;;;;;4.28;1.90;;;20.40;99.90;;;;;;5037051;28;20262;-81
2022/05/26 09:38:02;;;;;;;4.53;1.70;;;20.40;99.90;;;;;;5037247;28;20258;-80
2022/05/26 09:40:35;;;;;;;6.80;1.80;;;20.40;99.90;;;;;;5037427;28;20177;-81
2022/05/26 09:43:22;;;;;;;3.22;1.55;;;20.50;99.90;;;;;;5036762;28;20284;-81
2022/05/26 09:45:57;;;;;;;2.83;1.42;;;20.50;99.90;;;;;;5036220;28;20232;-78
2022/05/26 09:48:25;;;;;;;4.65;1.70;;;20.60;99.90;;;;;;5037420;28;20235;-82
2022/05/26 09:51:23;;;;;;;2.63;1.73;;;20.70;99.90;;;;;;5037287;28;20170;-78
2022/05/26 09:53:53;;;;;;;3.33;1.50;;;20.80;99.90;;;;;;5037161;28;20311;-85
2022/05/26 09:56:30;;;;;;;5.68;1.90;;;20.80;99.90;;;;;;5037154;28;20201;-84
2022/05/26 09:58:58;;;;;;;5.05;1.80;;;20.90;99.90;;;;;;5030199;28;20189;-82
2022/05/26 10:01:27;;;;;;;4.28;1.52;;;20.90;99.90;;;;;;5045969;28;20223;-84
2022/05/26 10:04:15;;;;;;;2.10;1.13;;;21.00;99.90;;;;;;5023459;28;20178;-80
2022/05/26 10:07:08;;;;;;;2.53;1.23;;;21.00;99.90;;;;;;5028164;28;20188;-85
2022/05/26 10:09:51;;;;;;;1.65;1.02;;;21.00;99.90;;;;;;5041213;28;20197;-78
2022/05/26 10:12:32;;;;;;;4.13;1.38;;;21.20;99.90;;;;;;5040960;28;20168;-75
2022/05/26 10:15:13;;;;;;;3.85;2.05;;;21.20;99.90;;;;;;5060164;28;20203;-83
2022/05/26 10:18:00;;;;;;;3.70;1.63;;;21.30;99.90;;;;;;5034358;28;20177;-81
2022/05/26 10:21:03;;;;;;;3.70;1.63;;;21.30;99.90;;;;;;5051259;28;20181;-79
2022/05/26 10:23:38;;;;;;;2.65;1.30;;;21.40;99.90;;;;;;5040155;28;20205;-77
2022/05/26 10:26:22;;;;;;;2.90;1.58;;;21.30;99.90;;;;;;5022187;28;20184;-81
2022/05/26 10:28:53;;;;;;;3.80;1.75;;;21.40;99.90;;;;;;5037207;28;20170;-82
2022/05/26 10:31:37;;;;;;;4.57;1.50;;;21.40;99.90;;;;;;5037166;28;20173;-81
2022/05/26 10:34:28;;;;;;;2.40;1.35;;;21.40;99.90;;;;;;5033655;28;20207;-78
2022/05/26 10:37:00;;;;;;;2.70;1.33;;;21.50;99.90;;;;;;5028913;28;20206;-79
2022/05/26 10:39:54;;;;;;;3.45;1.50;;;21.70;99.90;;;;;;5026573;28;20250;-81
2022/05/26 10:42:28;;;;;;;3.63;1.80;;;21.90;99.90;;;;;;5040534;28;20200;-81
2022/05/26 10:45:15;;;;;;;3.70;1.67;;;22.00;99.90;;;;;;5040406;28;20204;-80
2022/05/26 10:48:10;;;;;;;3.17;1.20;;;22.10;99.90;;;;;;5040112;28;20177;-80
2022/05/26 10:51:07;;;;;;;3.58;1.60;;;22.20;99.90;;;;;;4961990;28;20188;-75
2022/05/26 10:53:49;;;;;;;4.10;1.92;;;22.30;99.90;;;;;;5040074;28;20169;-82
2022/05/26 10:56:31;;;;;;;2.67;1.40;;;22.50;99.90;;;;;;5039948;28;20169;-79
2022/05/26 10:59:39;;;;;;;2.38;1.40;;;22.70;99.90;;;;;;5033152;28;20205;-82
2022/05/26 11:02:27;;;;;;;1.83;1.17;;;22.80;99.90;;;;;;5037582;28;20277;-79
2022/05/26 11:05:09;;;;;;;2.05;1.10;;;22.90;99.90;;;;;;5039523;28;20262;-80
2022/05/26 11:08:04;;;;;;;2.92;1.38;;;22.80;99.90;;;;;;5042875;28;20170;-84
2022/05/26 11:10:53;;;;;;;4.20;1.40;;;22.90;99.90;;;;;;5036141;28;20173;-81
2022/05/26 11:13:28;;;;;;;2.97;1.50;;;23.00;99.90;;;;;;5029045;28;20255;-84
2022/05/26 11:18:54;;;;;;;5.53;1.70;;;23.20;99.90;;;;;;5041217;28;20211;-84
2022/05/26 11:21:21;;;;;;;3.67;1.58;;;23.30;99.90;;;;;;5036643;28;20236;-82
2022/05/26 11:23:50;;;;;;;5.78;1.58;;;23.20;99.90;;;;;;5035215;28;20169;-80
2022/05/26 11:26:28;;;;;;;4.07;2.65;;;23.20;99.90;;;;;;5033322;28;20193;-79
2022/05/26 11:28:59;;;;;;;3.97;2.33;;;23.20;99.90;;;;;;5035952;28;20189;-81
2022/05/26 11:37:28;;;;;;;2.63;1.20;;;23.60;99.90;;;;;;5052200;28;20441;-80
2022/05/26 11:40:12;;;;;;;3.53;1.38;;;23.70;99.90;;;;;;5040246;28;20189;-83
2022/05/26 11:42:47;;;;;;;3.40;1.52;;;23.60;99.90;;;;;;5033468;28;20252;-82
2022/05/26 11:45:15;;;;;;;3.53;1.67;;;23.60;99.90;;;;;;5037882;28;20181;-82
2022/05/26 11:47:51;;;;;;;4.15;1.65;;;23.50;99.90;;;;;;5032388;28;20201;-85
2022/05/26 11:50:23;;;;;;;2.05;1.30;;;23.40;99.90;;;;;;5034810;28;20243;-80
2022/05/26 11:52:52;;;;;;;4.50;1.65;;;23.40;99.90;;;;;;5032917;28;20206;-80
2022/05/26 11:55:31;;;;;;;2.33;1.40;;;23.40;99.90;;;;;;5037095;28;20165;-78
2022/05/26 11:58:12;;;;;;;3.75;1.60;;;23.50;99.90;;;;;;5037799;28;20193;-79
2022/05/26 12:00:44;;;;;;;3.28;1.67;;;23.70;99.90;;;;;;5025076;28;20217;-79
2022/05/26 12:03:22;;;;;;;2.15;1.50;;;23.80;99.90;;;;;;5026229;28;20220;-77
2022/05/26 12:06:06;;;;;;;3.17;1.63;;;23.90;99.90;;;;;;5034322;28;20202;-87
2022/05/26 12:08:55;;;;;;;3.75;1.77;;;23.90;99.90;;;;;;5031752;28;20290;-80
2022/05/26 12:11:46;;;;;;;2.47;1.48;;;24.00;99.90;;;;;;5053795;28;20188;-82
2022/05/26 12:14:31;;;;;;;6.65;2.00;;;24.10;99.90;;;;;;5034455;28;20177;-82
2022/05/26 12:17:33;;;;;;;2.83;1.70;;;24.10;99.90;;;;;;5034921;28;20189;-77
2022/05/26 12:20:11;;;;;;;2.97;1.67;;;24.20;99.90;;;;;;5035857;28;20182;-89
2022/05/26 12:23:03;;;;;;;2.95;1.70;;;24.30;99.90;;;;;;5046452;28;20193;-85
2022/05/26 12:25:42;;;;;;;1.75;1.30;;;24.30;99.90;;;;;;5072537;28;20211;-87
2022/05/26 12:28:13;;;;;;;2.05;1.35;;;24.50;99.90;;;;;;5074460;28;20348;-83
2022/05/26 12:30:45;;;;;;;2.88;1.70;;;24.60;99.90;;;;;;5025892;28;20189;-78
2022/05/26 12:33:22;;;;;;;2.72;1.45;;;24.70;98.90;;;;;;5050775;28;20188;-82
2022/05/26 12:35:54;;;;;;;1.65;1.38;;;24.80;99.90;;;;;;5029178;28;20189;-87
2022/05/26 12:38:44;;;;;;;6.03;1.67;;;24.90;99.90;;;;;;5048974;28;20220;-78
2022/05/26 12:41:43;;;;;;;2.92;1.60;;;25.10;99.90;;;;;;5028987;28;20243;-79
2022/05/26 12:44:19;;;;;;;2.70;1.52;;;25.30;99.90;;;;;;5036922;28;20197;-83
2022/05/26 12:47:06;;;;;;;3.17;1.67;;;25.40;99.90;;;;;;5038856;28;20234;-86
2022/05/26 12:49:54;;;;;;;2.25;1.63;;;25.40;99.90;;;;;;5038906;28;20178;-85
2022/05/26 12:52:55;;;;;;;4.30;2.20;;;25.40;98.90;;;;;;5047218;28;20219;-84
2022/05/26 12:55:44;;;;;;;3.67;2.05;;;25.30;99.90;;;;;;5025009;28;20197;-89
2022/05/26 12:58:18;;;;;;;4.10;2.20;;;25.30;99.00;;;;;;5038613;28;20227;-78
2022/05/26 13:00:47;;;;;;;3.08;2.00;;;25.30;99.90;;;;;;5028042;28;20186;-79
2022/05/26 13:03:31;;;;;;;4.60;2.53;;;25.30;99.90;;;;;;5046057;28;20212;-83
2022/05/26 13:06:07;;;;;;;3.97;2.40;;;25.30;97.50;;;;;;5050628;28;20181;-78
2022/05/26 13:08:47;;;;;;;3.97;2.40;;;25.30;94.10;;;;;;5051532;28;20184;-76
2022/05/26 13:11:25;;;;;;;4.88;2.28;;;25.40;99.50;;;;;;5034692;28;20176;-83
2022/05/26 13:13:59;;;;;;;3.05;1.90;;;25.30;96.60;;;;;;5034338;28;20185;-75
2022/05/26 13:16:27;;;;;;;2.80;2.00;;;25.30;99.60;;;;;;5027001;28;20360;-81
2022/05/26 13:19:07;;;;;;;4.88;2.20;;;25.40;99.90;;;;;;5032741;28;20227;-84
2022/05/26 13:21:33;;;;;;;4.18;2.00;;;25.50;99.00;;;;;;5036065;28;20285;-82
2022/05/26 13:24:05;;;;;;;3.20;1.70;;;25.50;99.90;;;;;;5039600;28;20236;-79
2022/05/26 13:26:30;;;;;;;4.30;1.85;;;25.50;99.10;;;;;;5055390;28;20177;-82
2022/05/26 13:28:59;;;;;;;4.38;1.88;;;25.50;99.70;;;;;;5054096;28;20202;-79
2022/05/26 13:34:15;;;;;;;5.50;1.73;;;25.60;99.90;;;;;;5062240;28;20183;-76
2022/05/26 13:36:47;;;;;;;3.63;1.63;;;25.80;99.90;;;;;;5038466;28;20209;-79
2022/05/26 13:39:39;;;;;;;3.00;1.42;;;25.80;99.60;;;;;;5036390;28;20247;-80
2022/05/26 13:42:05;;;;;;;2.83;1.50;;;25.80;98.10;;;;;;5029281;28;20364;-81
2022/05/26 13:44:41;;;;;;;2.67;1.30;;;25.90;99.90;;;;;;5032652;28;20236;-76
2022/05/26 13:47:11;;;;;;;2.15;1.23;;;26.00;98.70;;;;;;5050278;28;20271;-80
2022/05/26 13:49:55;;;;;;;2.13;1.20;;;26.00;98.40;;;;;;5040407;28;20193;-78
2022/05/26 13:52:28;;;;;;;1.45;1.00;;;26.10;98.30;;;;;;5045013;28;20193;-81
2022/05/26 13:54:59;;;;;;;2.50;1.20;;;26.20;96.80;;;;;;5038437;28;20188;-79
2022/05/26 13:57:37;;;;;;;2.33;1.23;;;26.20;97.40;;;;;;5031832;28;20177;-78
2022/05/26 14:00:14;;;;;;;1.63;0.93;;;26.20;96.10;;;;;;5031111;28;20185;-80